Terminal Aerodrome Forecast
Issued by NWS

Home | Current Version | Previous Version | Text Only | Print | Product List | Glossary On
Versions: 1 2 3 4 5 6 7 8 9 10 11 12 13 14 15 16 17
000
FTUS41 KILN 041100
TAFLUK
TAF
KLUK 041131Z 0412/0512 21004KT P6SM SCT150
     FM041500 22010G20KT P6SM SCT060 BKN150
     FM041800 22013KT P6SM VCSH BKN050 BKN150
     FM042300 21007KT P6SM BKN060 BKN250=

USA.gov is the U.S. government's official web portal to all federal, state and local government web resources and services.